F/V Harvestor — WDC8229 — position and weather

sailwx.info

Track history (hours):
 
Tides and Currents Weather Stations Pressure Air Temp Water Temp Dewpoint Dewpoint Depression Visibility Wind Speed Wind Dir Waves Ship Positions

F/V Harvestor

Owner: F/V HARVESTOR INC., EDMONDS, WA. More information available from US FCC via Universal Licensing System and Coast Guard Vessel Documentation Center.

Last reported at 2017-Sep-21 15:58 UTC. Time now 2017-Sep-23 20:15 UTC.
Position N 47°38' W 122°23'.

Length 40 m.

Type: Fishing. MMSI: 367083650.

Date/timePositionNaut miles runAvg speedWind from/ knotsBaromVisibWave heightAir tempDewpointWater temp
2017-Sep-21 15:58N 47°38' W 122°23'0 0.0
2017-Sep-21 15:30N 47°38' W 122°23'0 0.5
2017-Sep-21 15:00N 47°38' W 122°23'0 0.0
2017-Sep-21 14:30N 47°38' W 122°23'0 0.0
2017-Sep-21 14:00N 47°38' W 122°23'0 0.0
2017-Sep-21 13:30N 47°38' W 122°23'0 0.0
2017-Sep-21 13:00N 47°38' W 122°23'0 0.0
2017-Sep-21 12:30N 47°38' W 122°23'0 0.0
2017-Sep-21 12:00N 47°38' W 122°23'0 0.0
2017-Sep-21 11:30N 47°38' W 122°23'0 0.0
2017-Sep-21 11:00N 47°38' W 122°23'0 0.0
2017-Sep-21 10:30N 47°38' W 122°23'0 0.0
2017-Sep-21 10:00N 47°38' W 122°23'0 0.0
2017-Sep-21 09:30N 47°38' W 122°23'0 0.0
2017-Sep-21 09:00N 47°38' W 122°23'0 0.0
2017-Sep-21 08:30N 47°38' W 122°23'0 0.0
2017-Sep-21 08:00N 47°38' W 122°23'0 0.0
2017-Sep-21 07:30N 47°38' W 122°23'0 0.0
2017-Sep-21 07:00N 47°38' W 122°23'0 0.0
2017-Sep-21 06:30N 47°38' W 122°23'0 0.0
2017-Sep-21 06:00N 47°38' W 122°23'0 0.0
2017-Sep-21 05:30N 47°38' W 122°23'0 0.0
2017-Sep-21 05:00N 47°38' W 122°23'0 0.0
2017-Sep-21 04:30N 47°38' W 122°23'2 4.3
2017-Sep-21 04:00N 47°39' W 122°26'4 7.3
2017-Sep-21 03:30N 47°42' W 122°28'4 7.3
2017-Sep-21 03:00N 47°46' W 122°27'4 7.5
2017-Sep-21 02:30N 47°49' W 122°28'4 7.5
2017-Sep-21 02:00N 47°53' W 122°30'4 7.5
2017-Sep-21 01:30N 47°56' W 122°33'4 8.5
2017-Sep-21 01:00N 47°59' W 122°37'4 8.6
2017-Sep-21 00:30N 48°03' W 122°39'4 7.9
2017-Sep-20 23:58N 48°07' W 122°42'511.0
2017-Sep-20 23:30N 48°11' W 122°46'5 9.8
2017-Sep-20 22:59N 48°16' W 122°48'4 8.5
2017-Sep-20 22:29N 48°20' W 122°47'4 7.9
2017-Sep-20 22:00N 48°24' W 122°45'4 7.5
2017-Sep-20 21:30N 48°28' W 122°44'3 6.7
2017-Sep-20 21:00N 48°31' W 122°42'3 3.1
2017-Sep-20 20:05N 48°34' W 122°41'0 0.0
2017-Sep-20 19:57N 48°34' W 122°41'0 0.0
2017-Sep-20 18:34N 48°34' W 122°41'0 0.5
2017-Sep-20 18:29N 48°34' W 122°41'0 0.2
2017-Sep-20 17:54N 48°34' W 122°41'0 0.0
2017-Sep-20 17:26N 48°34' W 122°41'0 0.0
2017-Sep-20 16:46N 48°34' W 122°41'0 0.0
2017-Sep-20 16:22N 48°34' W 122°41'0 0.0
2017-Sep-20 16:00N 48°34' W 122°41'0 0.0
2017-Sep-20 15:30N 48°34' W 122°41'0 0.0
2017-Sep-20 15:00N 48°34' W 122°41'0 0.0
2017-Sep-20 13:55N 48°34' W 122°41'0 0.0
2017-Sep-20 13:30N 48°34' W 122°41'0 0.0
2017-Sep-20 12:59N 48°34' W 122°41'0 0.0
2017-Sep-20 12:30N 48°34' W 122°41'0 0.0
2017-Sep-20 12:00N 48°34' W 122°41'0 0.0
2017-Sep-20 11:30N 48°34' W 122°41'0 0.0
2017-Sep-20 11:00N 48°34' W 122°41'0 0.0
2017-Sep-20 10:11N 48°34' W 122°41'0 0.0
2017-Sep-20 09:58N 48°34' W 122°41'0 0.0
2017-Sep-20 09:14N 48°34' W 122°41'0 0.0
2017-Sep-20 08:41N 48°34' W 122°41'0 0.0
2017-Sep-20 08:30N 48°34' W 122°41'0 0.0
2017-Sep-20 07:58N 48°34' W 122°41'0 0.0
2017-Sep-20 07:30N 48°34' W 122°41'0 0.0
2017-Sep-20 06:53N 48°34' W 122°41'0 0.0
2017-Sep-20 06:12N 48°34' W 122°41'0 0.0
2017-Sep-20 05:53N 48°34' W 122°41'0 0.0
2017-Sep-20 05:28N 48°34' W 122°41'0 0.0
2017-Sep-20 04:07N 48°34' W 122°41'0 0.0
2017-Sep-20 04:00N 48°34' W 122°41'0 0.0
2017-Sep-20 03:28N 48°34' W 122°41'0 0.9
2017-Sep-20 03:00N 48°33' W 122°41'3 6.8
2017-Sep-20 02:30N 48°30' W 122°43'4 7.5
2017-Sep-20 01:59N 48°26' W 122°42'4 8.2
2017-Sep-20 01:30N 48°25' W 122°37'6 9.5
2017-Sep-20 00:53N 48°20' W 122°32'3 8.1
2017-Sep-20 00:28N 48°17' W 122°31'9 7.9
2017-Sep-19 23:15N 48°07' W 122°30'3 9.0
2017-Sep-19 22:58N 48°05' W 122°27'6 9.0
2017-Sep-19 22:20N 48°01' W 122°21'3 8.8
2017-Sep-19 22:00N 47°59' W 122°20'4 9.0
2017-Sep-19 21:30N 47°54' W 122°21'5 9.0
2017-Sep-19 21:00N 47°50' W 122°24'4 8.7
2017-Sep-19 20:30N 47°46' W 122°25'4 8.8
2017-Sep-19 20:00N 47°41' W 122°27'4 7.5
2017-Sep-19 19:30N 47°38' W 122°25'  
2017-Sep-15 19:55N 47°38' W 122°23'0 0.4
2017-Sep-15 19:30N 47°38' W 122°23'0 0.6
2017-Sep-15 19:00N 47°38' W 122°23'0 0.0
2017-Sep-15 18:30N 47°38' W 122°23'0 0.0
2017-Sep-15 18:01N 47°38' W 122°23'0 0.0
2017-Sep-15 17:30N 47°38' W 122°23'0 0.0
2017-Sep-15 17:00N 47°38' W 122°23'0 0.0
2017-Sep-15 16:31N 47°38' W 122°23'0 0.0
2017-Sep-15 16:01N 47°38' W 122°23'0 0.0
2017-Sep-15 15:30N 47°38' W 122°23'0 0.0
2017-Sep-15 15:00N 47°38' W 122°23'0 0.0
2017-Sep-15 14:31N 47°38' W 122°23'0 0.0
2017-Sep-15 14:00N 47°38' W 122°23'0 0.0
2017-Sep-15 13:31N 47°38' W 122°23'0 0.0
2017-Sep-15 13:01N 47°38' W 122°23'0 0.0
2017-Sep-15 12:31N 47°38' W 122°23'0 0.0
2017-Sep-15 12:00N 47°38' W 122°23'0 0.0
2017-Sep-15 11:30N 47°38' W 122°23'0 0.0
2017-Sep-15 11:00N 47°38' W 122°23'0 0.0
2017-Sep-15 10:30N 47°38' W 122°23'0 0.0
2017-Sep-15 10:01N 47°38' W 122°23'0 0.0
2017-Sep-15 09:30N 47°38' W 122°23'0 0.0
2017-Sep-15 09:01N 47°38' W 122°23'0 0.0
2017-Sep-15 08:31N 47°38' W 122°23'0 0.0
2017-Sep-15 08:00N 47°38' W 122°23'0 0.0
2017-Sep-15 07:31N 47°38' W 122°23'0 0.0
2017-Sep-15 07:00N 47°38' W 122°23'0 0.0
2017-Sep-15 06:30N 47°38' W 122°23'0 0.0
2017-Sep-15 06:00N 47°38' W 122°23'0 0.0
2017-Sep-15 05:31N 47°38' W 122°23'0 0.0
2017-Sep-15 05:01N 47°38' W 122°23'0 0.0
2017-Sep-15 04:31N 47°38' W 122°23'0 0.0
2017-Sep-15 04:00N 47°38' W 122°23'0 0.0
2017-Sep-15 03:30N 47°38' W 122°23'0 0.0
2017-Sep-15 03:01N 47°38' W 122°23'0 0.0
2017-Sep-15 02:30N 47°38' W 122°23'0 0.0
2017-Sep-15 02:01N 47°38' W 122°23'0 0.0
2017-Sep-15 01:30N 47°38' W 122°23'0 0.0
2017-Sep-15 01:01N 47°38' W 122°23'0 0.0
2017-Sep-15 00:31N 47°38' W 122°23'0 0.0
2017-Sep-15 00:01N 47°38' W 122°23'0 0.0
2017-Sep-14 23:31N 47°38' W 122°23'0 0.0
2017-Sep-14 23:00N 47°38' W 122°23'0 0.0
2017-Sep-14 22:31N 47°38' W 122°23'0 0.0
2017-Sep-14 22:01N 47°38' W 122°23'0 0.0
2017-Sep-14 21:30N 47°38' W 122°23'0 0.0
2017-Sep-14 21:01N 47°38' W 122°23'0 0.0
2017-Sep-14 20:31N 47°38' W 122°23'0 0.0
2017-Sep-14 20:01N 47°38' W 122°23'0 0.0
2017-Sep-14 19:30N 47°38' W 122°23'0 0.0
2017-Sep-14 19:00N 47°38' W 122°23'0 0.0
2017-Sep-14 18:30N 47°38' W 122°23'0 0.0
2017-Sep-14 18:00N 47°38' W 122°23'0 0.0
2017-Sep-14 17:30N 47°38' W 122°23'0 0.0
2017-Sep-14 17:00N 47°38' W 122°23'0 0.0
2017-Sep-14 16:30N 47°38' W 122°23'0 0.0
2017-Sep-14 16:00N 47°38' W 122°23'0 0.0
2017-Sep-14 15:30N 47°38' W 122°23'0 0.0
2017-Sep-14 15:00N 47°38' W 122°23'0 0.0
2017-Sep-14 14:30N 47°38' W 122°23'0 0.0
2017-Sep-14 14:00N 47°38' W 122°23'0 0.0
2017-Sep-14 13:31N 47°38' W 122°23'0 0.0
2017-Sep-14 13:01N 47°38' W 122°23'0 0.0
2017-Sep-14 12:30N 47°38' W 122°23'0 0.0
2017-Sep-14 12:00N 47°38' W 122°23'0 0.0
2017-Sep-14 11:30N 47°38' W 122°23'0 0.0
2017-Sep-14 11:01N 47°38' W 122°23'0 0.0
2017-Sep-14 10:30N 47°38' W 122°23'0 0.0
2017-Sep-14 10:00N 47°38' W 122°23'0 0.0
2017-Sep-14 09:30N 47°38' W 122°23'0 0.0
2017-Sep-14 09:01N 47°38' W 122°23'0 0.0
2017-Sep-14 08:30N 47°38' W 122°23'0 0.0
2017-Sep-14 08:01N 47°38' W 122°23'0 0.0
2017-Sep-14 07:30N 47°38' W 122°23'0 0.0
2017-Sep-14 07:01N 47°38' W 122°23'0 0.0
2017-Sep-14 06:31N 47°38' W 122°23'0 0.0
2017-Sep-14 06:01N 47°38' W 122°23'0 0.0
2017-Sep-14 05:30N 47°38' W 122°23'0 0.0
2017-Sep-14 05:00N 47°38' W 122°23'0 0.0
2017-Sep-14 04:31N 47°38' W 122°23'0 0.0
2017-Sep-14 04:01N 47°38' W 122°23'3 5.8
2017-Sep-14 03:31N 47°39' W 122°27'4 8.0
2017-Sep-14 03:00N 47°43' W 122°28'4 8.4
2017-Sep-14 02:31N 47°47' W 122°28'4 8.3
2017-Sep-14 02:01N 47°51' W 122°29'4 8.0
2017-Sep-14 01:31N 47°55' W 122°31'4 8.0
2017-Sep-14 01:00N 47°58' W 122°35'4 7.3
2017-Sep-14 00:30N 48°01' W 122°37'4 6.9
2017-Sep-13 23:58N 48°05' W 122°38'3 7.0
2017-Sep-13 23:31N 48°08' W 122°40'4 6.4
2017-Sep-13 22:51N 48°11' W 122°44'2 6.5
2017-Sep-13 22:29N 48°13' W 122°47'5 7.8
2017-Sep-13 21:49N 48°18' W 122°48'4 8.7
2017-Sep-13 21:23N 48°22' W 122°46'3 8.2
2017-Sep-13 21:00N 48°25' W 122°45'4 8.1
2017-Sep-13 20:30N 48°29' W 122°44'4 7.6
2017-Sep-13 20:00N 48°32' W 122°41'2 0.4
2017-Sep-13 15:50N 48°34' W 122°41'0 0.0
2017-Sep-13 13:29N 48°34' W 122°41'0 0.0
2017-Sep-13 10:14N 48°34' W 122°41'3 0.5
2017-Sep-13 04:04N 48°31' W 122°42'1 9.4
2017-Sep-13 03:59N 48°30' W 122°43'4 8.3
2017-Sep-13 03:29N 48°26' W 122°42'5 5.7
2017-Sep-13 02:41N 48°25' W 122°36'0 0.2
2017-Sep-13 02:30N 48°25' W 122°36'0 0.7
2017-Sep-13 01:51N 48°24' W 122°35'2 5.0
2017-Sep-13 01:27N 48°23' W 122°34'3 7.3
2017-Sep-13 01:00N 48°20' W 122°32'14 7.3
2017-Sep-12 23:09N 48°06' W 122°29'2 7.7
2017-Sep-12 22:53N 48°05' W 122°26'3 7.5
2017-Sep-12 22:30N 48°03' W 122°23'4 7.5
2017-Sep-12 22:00N 47°60' W 122°21'4 7.3
2017-Sep-12 21:30N 47°56' W 122°20'4 7.8
2017-Sep-12 21:01N 47°53' W 122°22'4 8.1
2017-Sep-12 20:31N 47°49' W 122°25'4 8.9
2017-Sep-12 20:00N 47°45' W 122°26'5 9.1
2017-Sep-12 19:31N 47°40' W 122°27'3 6.9
2017-Sep-12 19:01N 47°38' W 122°23'0 0.2
2017-Sep-12 18:30N 47°38' W 122°23'0 0.0
2017-Sep-12 18:00N 47°38' W 122°23'0 0.0
2017-Sep-12 17:30N 47°38' W 122°23'0 0.0
2017-Sep-12 17:01N 47°38' W 122°23'0 0.0
2017-Sep-12 16:30N 47°38' W 122°23'0 0.0
2017-Sep-12 16:01N 47°38' W 122°23'0 0.0
2017-Sep-12 15:31N 47°38' W 122°23'0 0.0
2017-Sep-12 15:01N 47°38' W 122°23'0 0.0
2017-Sep-12 14:30N 47°38' W 122°23'0 0.0
2017-Sep-12 14:00N 47°38' W 122°23'0 0.0
2017-Sep-12 13:30N 47°38' W 122°23'0 0.0
2017-Sep-12 13:00N 47°38' W 122°23'0 0.0
2017-Sep-12 12:30N 47°38' W 122°23'0 0.0
2017-Sep-12 12:01N 47°38' W 122°23'0 0.0
2017-Sep-12 11:31N 47°38' W 122°23'0 0.0
2017-Sep-12 11:00N 47°38' W 122°23'0 0.0
2017-Sep-12 10:30N 47°38' W 122°23'0 0.0
2017-Sep-12 10:01N 47°38' W 122°23'0 0.0
2017-Sep-12 09:30N 47°38' W 122°23'0 0.0
2017-Sep-12 09:01N 47°38' W 122°23'0 0.0
2017-Sep-12 08:30N 47°38' W 122°23'0 0.0
2017-Sep-12 08:00N 47°38' W 122°23'0 0.0
2017-Sep-12 07:30N 47°38' W 122°23'0 0.0
2017-Sep-12 07:01N 47°38' W 122°23'0 0.0
2017-Sep-12 06:30N 47°38' W 122°23'0 0.0
2017-Sep-12 06:00N 47°38' W 122°23'0 0.0
2017-Sep-12 05:30N 47°38' W 122°23'0 0.0
2017-Sep-12 05:01N 47°38' W 122°23'0 0.0
2017-Sep-12 04:30N 47°38' W 122°23'0 0.0
2017-Sep-12 04:01N 47°38' W 122°23'0 0.0
2017-Sep-12 03:30N 47°38' W 122°23'0 0.0
2017-Sep-12 03:00N 47°38' W 122°23'0 0.0
2017-Sep-12 02:31N 47°38' W 122°23'0 0.0
2017-Sep-12 02:00N 47°38' W 122°23'0 0.0
2017-Sep-12 01:30N 47°38' W 122°23'0 0.0
2017-Sep-12 01:00N 47°38' W 122°23'0 0.0
2017-Sep-12 00:30N 47°38' W 122°23'0 0.0
2017-Sep-12 00:00N 47°38' W 122°23'0 0.0
2017-Sep-11 23:30N 47°38' W 122°23'0 0.0
2017-Sep-11 23:00N 47°38' W 122°23'0 0.0
2017-Sep-11 22:31N 47°38' W 122°23'0 0.0
2017-Sep-11 22:01N 47°38' W 122°23'0 0.0
2017-Sep-11 21:31N 47°38' W 122°23'0 0.0
2017-Sep-11 21:00N 47°38' W 122°23'0 0.0
2017-Sep-11 20:31N 47°38' W 122°23'0 0.0
2017-Sep-11 20:01N 47°38' W 122°23'0 0.0
2017-Sep-11 19:30N 47°38' W 122°23'0 0.0
2017-Sep-11 19:00N 47°38' W 122°23'0 0.0
2017-Sep-11 18:30N 47°38' W 122°23'0 0.0
2017-Sep-11 18:00N 47°38' W 122°23'0 0.0
2017-Sep-11 17:31N 47°38' W 122°23'0 0.0
2017-Sep-11 17:00N 47°38' W 122°23'0 0.0
2017-Sep-11 16:30N 47°38' W 122°23'0 0.0
2017-Sep-11 16:00N 47°38' W 122°23'  
Track history (hours):
 
Tides and Currents Weather Stations Pressure Air Temp Water Temp Dewpoint Dewpoint Depression Visibility Wind Speed Wind Dir Waves Ship Positions

F/V Harvestor

Owner: F/V HARVESTOR INC., EDMONDS, WA. More information available from US FCC via Universal Licensing System and Coast Guard Vessel Documentation Center.

Last reported at 2017-Sep-21 15:58 UTC. Time now 2017-Sep-23 20:15 UTC.
Position N 47°38' W 122°23'.

Length 40 m.

Type: Fishing. MMSI: 367083650.

Date/timePositionNaut miles runAvg speedWind from/ knotsBaromVisibWave heightAir tempDewpointWater temp
2017-Sep-21 15:58N 47°38' W 122°23'0 0.0
2017-Sep-21 15:30N 47°38' W 122°23'0 0.5
2017-Sep-21 15:00N 47°38' W 122°23'0 0.0
2017-Sep-21 14:30N 47°38' W 122°23'0 0.0
2017-Sep-21 14:00N 47°38' W 122°23'0 0.0
2017-Sep-21 13:30N 47°38' W 122°23'0 0.0
2017-Sep-21 13:00N 47°38' W 122°23'0 0.0
2017-Sep-21 12:30N 47°38' W 122°23'0 0.0
2017-Sep-21 12:00N 47°38' W 122°23'0 0.0
2017-Sep-21 11:30N 47°38' W 122°23'0 0.0
2017-Sep-21 11:00N 47°38' W 122°23'0 0.0
2017-Sep-21 10:30N 47°38' W 122°23'0 0.0
2017-Sep-21 10:00N 47°38' W 122°23'0 0.0
2017-Sep-21 09:30N 47°38' W 122°23'0 0.0
2017-Sep-21 09:00N 47°38' W 122°23'0 0.0
2017-Sep-21 08:30N 47°38' W 122°23'0 0.0
2017-Sep-21 08:00N 47°38' W 122°23'0 0.0
2017-Sep-21 07:30N 47°38' W 122°23'0 0.0
2017-Sep-21 07:00N 47°38' W 122°23'0 0.0
2017-Sep-21 06:30N 47°38' W 122°23'0 0.0
2017-Sep-21 06:00N 47°38' W 122°23'0 0.0
2017-Sep-21 05:30N 47°38' W 122°23'0 0.0
2017-Sep-21 05:00N 47°38' W 122°23'0 0.0
2017-Sep-21 04:30N 47°38' W 122°23'2 4.3
2017-Sep-21 04:00N 47°39' W 122°26'4 7.3
2017-Sep-21 03:30N 47°42' W 122°28'4 7.3
2017-Sep-21 03:00N 47°46' W 122°27'4 7.5
2017-Sep-21 02:30N 47°49' W 122°28'4 7.5
2017-Sep-21 02:00N 47°53' W 122°30'4 7.5
2017-Sep-21 01:30N 47°56' W 122°33'4 8.5
2017-Sep-21 01:00N 47°59' W 122°37'4 8.6
2017-Sep-21 00:30N 48°03' W 122°39'4 7.9
2017-Sep-20 23:58N 48°07' W 122°42'511.0
2017-Sep-20 23:30N 48°11' W 122°46'5 9.8
2017-Sep-20 22:59N 48°16' W 122°48'4 8.5
2017-Sep-20 22:29N 48°20' W 122°47'4 7.9
2017-Sep-20 22:00N 48°24' W 122°45'4 7.5
2017-Sep-20 21:30N 48°28' W 122°44'3 6.7
2017-Sep-20 21:00N 48°31' W 122°42'3 3.1
2017-Sep-20 20:05N 48°34' W 122°41'0 0.0
2017-Sep-20 19:57N 48°34' W 122°41'0 0.0
2017-Sep-20 18:34N 48°34' W 122°41'0 0.5
2017-Sep-20 18:29N 48°34' W 122°41'0 0.2
2017-Sep-20 17:54N 48°34' W 122°41'0 0.0
2017-Sep-20 17:26N 48°34' W 122°41'0 0.0
2017-Sep-20 16:46N 48°34' W 122°41'0 0.0
2017-Sep-20 16:22N 48°34' W 122°41'0 0.0
2017-Sep-20 16:00N 48°34' W 122°41'0 0.0
2017-Sep-20 15:30N 48°34' W 122°41'0 0.0
2017-Sep-20 15:00N 48°34' W 122°41'0 0.0
2017-Sep-20 13:55N 48°34' W 122°41'0 0.0
2017-Sep-20 13:30N 48°34' W 122°41'0 0.0
2017-Sep-20 12:59N 48°34' W 122°41'0 0.0
2017-Sep-20 12:30N 48°34' W 122°41'0 0.0
2017-Sep-20 12:00N 48°34' W 122°41'0 0.0
2017-Sep-20 11:30N 48°34' W 122°41'0 0.0
2017-Sep-20 11:00N 48°34' W 122°41'0 0.0
2017-Sep-20 10:11N 48°34' W 122°41'0 0.0
2017-Sep-20 09:58N 48°34' W 122°41'0 0.0
2017-Sep-20 09:14N 48°34' W 122°41'0 0.0
2017-Sep-20 08:41N 48°34' W 122°41'0 0.0
2017-Sep-20 08:30N 48°34' W 122°41'0 0.0
2017-Sep-20 07:58N 48°34' W 122°41'0 0.0
2017-Sep-20 07:30N 48°34' W 122°41'0 0.0
2017-Sep-20 06:53N 48°34' W 122°41'0 0.0
2017-Sep-20 06:12N 48°34' W 122°41'0 0.0
2017-Sep-20 05:53N 48°34' W 122°41'0 0.0
2017-Sep-20 05:28N 48°34' W 122°41'0 0.0
2017-Sep-20 04:07N 48°34' W 122°41'0 0.0
2017-Sep-20 04:00N 48°34' W 122°41'0 0.0
2017-Sep-20 03:28N 48°34' W 122°41'0 0.9
2017-Sep-20 03:00N 48°33' W 122°41'3 6.8
2017-Sep-20 02:30N 48°30' W 122°43'4 7.5
2017-Sep-20 01:59N 48°26' W 122°42'4 8.2
2017-Sep-20 01:30N 48°25' W 122°37'6 9.5
2017-Sep-20 00:53N 48°20' W 122°32'3 8.1
2017-Sep-20 00:28N 48°17' W 122°31'9 7.9
2017-Sep-19 23:15N 48°07' W 122°30'3 9.0
2017-Sep-19 22:58N 48°05' W 122°27'6 9.0
2017-Sep-19 22:20N 48°01' W 122°21'3 8.8
2017-Sep-19 22:00N 47°59' W 122°20'4 9.0
2017-Sep-19 21:30N 47°54' W 122°21'5 9.0
2017-Sep-19 21:00N 47°50' W 122°24'4 8.7
2017-Sep-19 20:30N 47°46' W 122°25'4 8.8
2017-Sep-19 20:00N 47°41' W 122°27'4 7.5
2017-Sep-19 19:30N 47°38' W 122°25'  
2017-Sep-15 19:55N 47°38' W 122°23'0 0.4
2017-Sep-15 19:30N 47°38' W 122°23'0 0.6
2017-Sep-15 19:00N 47°38' W 122°23'0 0.0
2017-Sep-15 18:30N 47°38' W 122°23'0 0.0
2017-Sep-15 18:01N 47°38' W 122°23'0 0.0
2017-Sep-15 17:30N 47°38' W 122°23'0 0.0
2017-Sep-15 17:00N 47°38' W 122°23'0 0.0
2017-Sep-15 16:31N 47°38' W 122°23'0 0.0
2017-Sep-15 16:01N 47°38' W 122°23'0 0.0
2017-Sep-15 15:30N 47°38' W 122°23'0 0.0
2017-Sep-15 15:00N 47°38' W 122°23'0 0.0
2017-Sep-15 14:31N 47°38' W 122°23'0 0.0
2017-Sep-15 14:00N 47°38' W 122°23'0 0.0
2017-Sep-15 13:31N 47°38' W 122°23'0 0.0
2017-Sep-15 13:01N 47°38' W 122°23'0 0.0
2017-Sep-15 12:31N 47°38' W 122°23'0 0.0
2017-Sep-15 12:00N 47°38' W 122°23'0 0.0
2017-Sep-15 11:30N 47°38' W 122°23'0 0.0
2017-Sep-15 11:00N 47°38' W 122°23'0 0.0
2017-Sep-15 10:30N 47°38' W 122°23'0 0.0
2017-Sep-15 10:01N 47°38' W 122°23'0 0.0
2017-Sep-15 09:30N 47°38' W 122°23'0 0.0
2017-Sep-15 09:01N 47°38' W 122°23'0 0.0
2017-Sep-15 08:31N 47°38' W 122°23'0 0.0
2017-Sep-15 08:00N 47°38' W 122°23'0 0.0
2017-Sep-15 07:31N 47°38' W 122°23'0 0.0
2017-Sep-15 07:00N 47°38' W 122°23'0 0.0
2017-Sep-15 06:30N 47°38' W 122°23'0 0.0
2017-Sep-15 06:00N 47°38' W 122°23'0 0.0
2017-Sep-15 05:31N 47°38' W 122°23'0 0.0
2017-Sep-15 05:01N 47°38' W 122°23'0 0.0
2017-Sep-15 04:31N 47°38' W 122°23'0 0.0
2017-Sep-15 04:00N 47°38' W 122°23'0 0.0
2017-Sep-15 03:30N 47°38' W 122°23'0 0.0
2017-Sep-15 03:01N 47°38' W 122°23'0 0.0
2017-Sep-15 02:30N 47°38' W 122°23'0 0.0
2017-Sep-15 02:01N 47°38' W 122°23'0 0.0
2017-Sep-15 01:30N 47°38' W 122°23'0 0.0
2017-Sep-15 01:01N 47°38' W 122°23'0 0.0
2017-Sep-15 00:31N 47°38' W 122°23'0 0.0
2017-Sep-15 00:01N 47°38' W 122°23'0 0.0
2017-Sep-14 23:31N 47°38' W 122°23'0 0.0
2017-Sep-14 23:00N 47°38' W 122°23'0 0.0
2017-Sep-14 22:31N 47°38' W 122°23'0 0.0
2017-Sep-14 22:01N 47°38' W 122°23'0 0.0
2017-Sep-14 21:30N 47°38' W 122°23'0 0.0
2017-Sep-14 21:01N 47°38' W 122°23'0 0.0
2017-Sep-14 20:31N 47°38' W 122°23'0 0.0
2017-Sep-14 20:01N 47°38' W 122°23'0 0.0
2017-Sep-14 19:30N 47°38' W 122°23'0 0.0
2017-Sep-14 19:00N 47°38' W 122°23'0 0.0
2017-Sep-14 18:30N 47°38' W 122°23'0 0.0
2017-Sep-14 18:00N 47°38' W 122°23'0 0.0
2017-Sep-14 17:30N 47°38' W 122°23'0 0.0
2017-Sep-14 17:00N 47°38' W 122°23'0 0.0
2017-Sep-14 16:30N 47°38' W 122°23'0 0.0
2017-Sep-14 16:00N 47°38' W 122°23'0 0.0
2017-Sep-14 15:30N 47°38' W 122°23'0 0.0
2017-Sep-14 15:00N 47°38' W 122°23'0 0.0
2017-Sep-14 14:30N 47°38' W 122°23'0 0.0
2017-Sep-14 14:00N 47°38' W 122°23'0 0.0
2017-Sep-14 13:31N 47°38' W 122°23'0 0.0
2017-Sep-14 13:01N 47°38' W 122°23'0 0.0
2017-Sep-14 12:30N 47°38' W 122°23'0 0.0
2017-Sep-14 12:00N 47°38' W 122°23'0 0.0
2017-Sep-14 11:30N 47°38' W 122°23'0 0.0
2017-Sep-14 11:01N 47°38' W 122°23'0 0.0
2017-Sep-14 10:30N 47°38' W 122°23'0 0.0
2017-Sep-14 10:00N 47°38' W 122°23'0 0.0
2017-Sep-14 09:30N 47°38' W 122°23'0 0.0
2017-Sep-14 09:01N 47°38' W 122°23'0 0.0
2017-Sep-14 08:30N 47°38' W 122°23'0 0.0
2017-Sep-14 08:01N 47°38' W 122°23'0 0.0
2017-Sep-14 07:30N 47°38' W 122°23'0 0.0
2017-Sep-14 07:01N 47°38' W 122°23'0 0.0
2017-Sep-14 06:31N 47°38' W 122°23'0 0.0
2017-Sep-14 06:01N 47°38' W 122°23'0 0.0
2017-Sep-14 05:30N 47°38' W 122°23'0 0.0
2017-Sep-14 05:00N 47°38' W 122°23'0 0.0
2017-Sep-14 04:31N 47°38' W 122°23'0 0.0
2017-Sep-14 04:01N 47°38' W 122°23'3 5.8
2017-Sep-14 03:31N 47°39' W 122°27'4 8.0
2017-Sep-14 03:00N 47°43' W 122°28'4 8.4
2017-Sep-14 02:31N 47°47' W 122°28'4 8.3
2017-Sep-14 02:01N 47°51' W 122°29'4 8.0
2017-Sep-14 01:31N 47°55' W 122°31'4 8.0
2017-Sep-14 01:00N 47°58' W 122°35'4 7.3
2017-Sep-14 00:30N 48°01' W 122°37'4 6.9
2017-Sep-13 23:58N 48°05' W 122°38'3 7.0
2017-Sep-13 23:31N 48°08' W 122°40'4 6.4
2017-Sep-13 22:51N 48°11' W 122°44'2 6.5
2017-Sep-13 22:29N 48°13' W 122°47'5 7.8
2017-Sep-13 21:49N 48°18' W 122°48'4 8.7
2017-Sep-13 21:23N 48°22' W 122°46'3 8.2
2017-Sep-13 21:00N 48°25' W 122°45'4 8.1
2017-Sep-13 20:30N 48°29' W 122°44'4 7.6
2017-Sep-13 20:00N 48°32' W 122°41'2 0.4
2017-Sep-13 15:50N 48°34' W 122°41'0 0.0
2017-Sep-13 13:29N 48°34' W 122°41'0 0.0
2017-Sep-13 10:14N 48°34' W 122°41'3 0.5
2017-Sep-13 04:04N 48°31' W 122°42'1 9.4
2017-Sep-13 03:59N 48°30' W 122°43'4 8.3
2017-Sep-13 03:29N 48°26' W 122°42'5 5.7
2017-Sep-13 02:41N 48°25' W 122°36'0 0.2
2017-Sep-13 02:30N 48°25' W 122°36'0 0.7
2017-Sep-13 01:51N 48°24' W 122°35'2 5.0
2017-Sep-13 01:27N 48°23' W 122°34'3 7.3
2017-Sep-13 01:00N 48°20' W 122°32'14 7.3
2017-Sep-12 23:09N 48°06' W 122°29'2 7.7
2017-Sep-12 22:53N 48°05' W 122°26'3 7.5
2017-Sep-12 22:30N 48°03' W 122°23'4 7.5
2017-Sep-12 22:00N 47°60' W 122°21'4 7.3
2017-Sep-12 21:30N 47°56' W 122°20'4 7.8
2017-Sep-12 21:01N 47°53' W 122°22'4 8.1
2017-Sep-12 20:31N 47°49' W 122°25'4 8.9
2017-Sep-12 20:00N 47°45' W 122°26'5 9.1
2017-Sep-12 19:31N 47°40' W 122°27'3 6.9
2017-Sep-12 19:01N 47°38' W 122°23'0 0.2
2017-Sep-12 18:30N 47°38' W 122°23'0 0.0
2017-Sep-12 18:00N 47°38' W 122°23'0 0.0
2017-Sep-12 17:30N 47°38' W 122°23'0 0.0
2017-Sep-12 17:01N 47°38' W 122°23'0 0.0
2017-Sep-12 16:30N 47°38' W 122°23'0 0.0
2017-Sep-12 16:01N 47°38' W 122°23'0 0.0
2017-Sep-12 15:31N 47°38' W 122°23'0 0.0
2017-Sep-12 15:01N 47°38' W 122°23'0 0.0
2017-Sep-12 14:30N 47°38' W 122°23'0 0.0
2017-Sep-12 14:00N 47°38' W 122°23'0 0.0
2017-Sep-12 13:30N 47°38' W 122°23'0 0.0
2017-Sep-12 13:00N 47°38' W 122°23'0 0.0
2017-Sep-12 12:30N 47°38' W 122°23'0 0.0
2017-Sep-12 12:01N 47°38' W 122°23'0 0.0
2017-Sep-12 11:31N 47°38' W 122°23'0 0.0
2017-Sep-12 11:00N 47°38' W 122°23'0 0.0
2017-Sep-12 10:30N 47°38' W 122°23'0 0.0
2017-Sep-12 10:01N 47°38' W 122°23'0 0.0
2017-Sep-12 09:30N 47°38' W 122°23'0 0.0
2017-Sep-12 09:01N 47°38' W 122°23'0 0.0
2017-Sep-12 08:30N 47°38' W 122°23'0 0.0
2017-Sep-12 08:00N 47°38' W 122°23'0 0.0
2017-Sep-12 07:30N 47°38' W 122°23'0 0.0
2017-Sep-12 07:01N 47°38' W 122°23'0 0.0
2017-Sep-12 06:30N 47°38' W 122°23'0 0.0
2017-Sep-12 06:00N 47°38' W 122°23'0 0.0
2017-Sep-12 05:30N 47°38' W 122°23'0 0.0
2017-Sep-12 05:01N 47°38' W 122°23'0 0.0
2017-Sep-12 04:30N 47°38' W 122°23'0 0.0
2017-Sep-12 04:01N 47°38' W 122°23'0 0.0
2017-Sep-12 03:30N 47°38' W 122°23'0 0.0
2017-Sep-12 03:00N 47°38' W 122°23'0 0.0
2017-Sep-12 02:31N 47°38' W 122°23'0 0.0
2017-Sep-12 02:00N 47°38' W 122°23'0 0.0
2017-Sep-12 01:30N 47°38' W 122°23'0 0.0
2017-Sep-12 01:00N 47°38' W 122°23'0 0.0
2017-Sep-12 00:30N 47°38' W 122°23'0 0.0
2017-Sep-12 00:00N 47°38' W 122°23'0 0.0
2017-Sep-11 23:30N 47°38' W 122°23'0 0.0
2017-Sep-11 23:00N 47°38' W 122°23'0 0.0
2017-Sep-11 22:31N 47°38' W 122°23'0 0.0
2017-Sep-11 22:01N 47°38' W 122°23'0 0.0
2017-Sep-11 21:31N 47°38' W 122°23'0 0.0
2017-Sep-11 21:00N 47°38' W 122°23'0 0.0
2017-Sep-11 20:31N 47°38' W 122°23'0 0.0
2017-Sep-11 20:01N 47°38' W 122°23'0 0.0
2017-Sep-11 19:30N 47°38' W 122°23'0 0.0
2017-Sep-11 19:00N 47°38' W 122°23'0 0.0
2017-Sep-11 18:30N 47°38' W 122°23'0 0.0
2017-Sep-11 18:00N 47°38' W 122°23'0 0.0
2017-Sep-11 17:31N 47°38' W 122°23'0 0.0
2017-Sep-11 17:00N 47°38' W 122°23'0 0.0
2017-Sep-11 16:30N 47°38' W 122°23'0 0.0
2017-Sep-11 16:00N 47°38' W 122°23'  

Dump ship's entire track history